sensor_id;sensor_type;location;lat;lon;timestamp;temperature;humidity
79489;SHT31;68949;53.176;18.088;2023-07-28T00:00:42;17.60;63.05
79489;SHT31;68949;53.176;18.088;2023-07-28T00:03:30;17.61;62.97
79489;SHT31;68949;53.176;18.088;2023-07-28T00:05:56;17.61;62.99
79489;SHT31;68949;53.176;18.088;2023-07-28T00:08:23;17.61;62.87
79489;SHT31;68949;53.176;18.088;2023-07-28T00:10:49;17.59;62.86
79489;SHT31;68949;53.176;18.088;2023-07-28T00:13:16;17.57;62.97
79489;SHT31;68949;53.176;18.088;2023-07-28T00:15:43;17.57;62.79
79489;SHT31;68949;53.176;18.088;2023-07-28T00:18:09;17.56;62.86
79489;SHT31;68949;53.176;18.088;2023-07-28T00:20:36;17.55;63.06
79489;SHT31;68949;53.176;18.088;2023-07-28T00:23:03;17.53;62.98
79489;SHT31;68949;53.176;18.088;2023-07-28T00:25:29;17.51;62.89
79489;SHT31;68949;53.176;18.088;2023-07-28T00:27:56;17.49;63.16
79489;SHT31;68949;53.176;18.088;2023-07-28T00:30:23;17.49;63.61
79489;SHT31;68949;53.176;18.088;2023-07-28T00:32:49;17.49;63.78
79489;SHT31;68949;53.176;18.088;2023-07-28T00:35:16;17.48;63.94
79489;SHT31;68949;53.176;18.088;2023-07-28T00:37:43;17.48;64.11
79489;SHT31;68949;53.176;18.088;2023-07-28T00:40:10;17.49;64.36
79489;SHT31;68949;53.176;18.088;2023-07-28T00:42:38;17.49;64.40
79489;SHT31;68949;53.176;18.088;2023-07-28T00:45:05;17.49;64.45
79489;SHT31;68949;53.176;18.088;2023-07-28T00:47:32;17.49;64.52
79489;SHT31;68949;53.176;18.088;2023-07-28T00:50:00;17.48;64.72
79489;SHT31;68949;53.176;18.088;2023-07-28T00:52:27;17.45;64.71
79489;SHT31;68949;53.176;18.088;2023-07-28T00:54:53;17.43;64.52
79489;SHT31;68949;53.176;18.088;2023-07-28T00:57:20;17.41;64.30
79489;SHT31;68949;53.176;18.088;2023-07-28T00:59:47;17.38;64.14
79489;SHT31;68949;53.176;18.088;2023-07-28T01:02:14;17.35;64.13
79489;SHT31;68949;53.176;18.088;2023-07-28T01:04:40;17.33;64.12
79489;SHT31;68949;53.176;18.088;2023-07-28T01:07:09;17.32;64.10
79489;SHT31;68949;53.176;18.088;2023-07-28T01:09:46;17.30;64.14
79489;SHT31;68949;53.176;18.088;2023-07-28T01:12:39;17.30;64.09
79489;SHT31;68949;53.176;18.088;2023-07-28T01:15:06;17.32;64.02
79489;SHT31;68949;53.176;18.088;2023-07-28T01:17:33;17.33;64.10
79489;SHT31;68949;53.176;18.088;2023-07-28T01:20:00;17.35;64.09
79489;SHT31;68949;53.176;18.088;2023-07-28T01:27:55;17.38;64.36
79489;SHT31;68949;53.176;18.088;2023-07-28T01:30:24;17.40;64.23
79489;SHT31;68949;53.176;18.088;2023-07-28T01:32:54;17.39;64.35
79489;SHT31;68949;53.176;18.088;2023-07-28T01:35:22;17.39;64.49
79489;SHT31;68949;53.176;18.088;2023-07-28T01:37:50;17.39;64.51
79489;SHT31;68949;53.176;18.088;2023-07-28T01:40:17;17.38;64.55
79489;SHT31;68949;53.176;18.088;2023-07-28T01:42:44;17.35;64.64
79489;SHT31;68949;53.176;18.088;2023-07-28T01:45:12;17.34;64.85
79489;SHT31;68949;53.176;18.088;2023-07-28T01:47:39;17.35;64.97
79489;SHT31;68949;53.176;18.088;2023-07-28T01:50:05;17.36;65.01
79489;SHT31;68949;53.176;18.088;2023-07-28T01:52:32;17.40;64.98
79489;SHT31;68949;53.176;18.088;2023-07-28T01:54:59;17.43;64.72
79489;SHT31;68949;53.176;18.088;2023-07-28T01:57:26;17.44;64.96
79489;SHT31;68949;53.176;18.088;2023-07-28T01:59:54;17.42;65.11
79489;SHT31;68949;53.176;18.088;2023-07-28T02:02:21;17.42;65.12
79489;SHT31;68949;53.176;18.088;2023-07-28T02:04:48;17.42;65.15
79489;SHT31;68949;53.176;18.088;2023-07-28T02:07:14;17.41;65.16
79489;SHT31;68949;53.176;18.088;2023-07-28T02:09:41;17.39;65.31
79489;SHT31;68949;53.176;18.088;2023-07-28T02:12:08;17.34;65.47
79489;SHT31;68949;53.176;18.088;2023-07-28T02:14:34;17.31;65.60
79489;SHT31;68949;53.176;18.088;2023-07-28T02:17:01;17.29;65.68
79489;SHT31;68949;53.176;18.088;2023-07-28T02:19:28;17.28;65.90
79489;SHT31;68949;53.176;18.088;2023-07-28T02:21:58;17.27;66.04
79489;SHT31;68949;53.176;18.088;2023-07-28T02:24:24;17.25;65.99
79489;SHT31;68949;53.176;18.088;2023-07-28T02:26:51;17.24;66.15
79489;SHT31;68949;53.176;18.088;2023-07-28T02:29:18;17.23;66.28
79489;SHT31;68949;53.176;18.088;2023-07-28T02:31:44;17.23;66.45
79489;SHT31;68949;53.176;18.088;2023-07-28T02:34:11;17.24;66.54
79489;SHT31;68949;53.176;18.088;2023-07-28T02:36:38;17.23;66.80
79489;SHT31;68949;53.176;18.088;2023-07-28T02:39:04;17.21;66.83
79489;SHT31;68949;53.176;18.088;2023-07-28T02:41:31;17.21;67.21
79489;SHT31;68949;53.176;18.088;2023-07-28T02:43:58;17.20;67.25
79489;SHT31;68949;53.176;18.088;2023-07-28T02:46:24;17.18;67.37
79489;SHT31;68949;53.176;18.088;2023-07-28T02:48:52;17.17;67.44
79489;SHT31;68949;53.176;18.088;2023-07-28T02:51:19;17.16;67.40
79489;SHT31;68949;53.176;18.088;2023-07-28T02:53:46;17.16;67.50
79489;SHT31;68949;53.176;18.088;2023-07-28T02:56:12;17.17;67.47
79489;SHT31;68949;53.176;18.088;2023-07-28T02:58:39;17.18;67.67
79489;SHT31;68949;53.176;18.088;2023-07-28T03:01:06;17.20;67.78
79489;SHT31;68949;53.176;18.088;2023-07-28T03:03:35;17.21;67.71
79489;SHT31;68949;53.176;18.088;2023-07-28T03:06:02;17.21;67.71
79489;SHT31;68949;53.176;18.088;2023-07-28T03:08:29;17.22;67.86
79489;SHT31;68949;53.176;18.088;2023-07-28T03:11:08;17.21;67.90
79489;SHT31;68949;53.176;18.088;2023-07-28T03:13:35;17.21;68.01
79489;SHT31;68949;53.176;18.088;2023-07-28T03:16:02;17.18;68.13
79489;SHT31;68949;53.176;18.088;2023-07-28T03:18:28;17.17;68.71
79489;SHT31;68949;53.176;18.088;2023-07-28T03:20:55;17.15;69.18
79489;SHT31;68949;53.176;18.088;2023-07-28T03:23:22;17.11;69.75
79489;SHT31;68949;53.176;18.088;2023-07-28T03:25:48;17.09;70.09
79489;SHT31;68949;53.176;18.088;2023-07-28T03:28:15;17.07;70.25
79489;SHT31;68949;53.176;18.088;2023-07-28T03:30:42;17.05;70.60
79489;SHT31;68949;53.176;18.088;2023-07-28T03:33:09;17.05;70.59
79489;SHT31;68949;53.176;18.088;2023-07-28T03:35:35;17.05;70.63
79489;SHT31;68949;53.176;18.088;2023-07-28T03:38:08;16.99;71.07
79489;SHT31;68949;53.176;18.088;2023-07-28T03:40:35;16.98;71.22
79489;SHT31;68949;53.176;18.088;2023-07-28T03:43:02;16.98;71.40
79489;SHT31;68949;53.176;18.088;2023-07-28T03:45:29;17.00;71.56
79489;SHT31;68949;53.176;18.088;2023-07-28T03:47:56;16.99;71.66
79489;SHT31;68949;53.176;18.088;2023-07-28T03:50:23;17.01;71.77
79489;SHT31;68949;53.176;18.088;2023-07-28T03:52:52;17.02;72.01
79489;SHT31;68949;53.176;18.088;2023-07-28T03:55:19;17.01;72.27
79489;SHT31;68949;53.176;18.088;2023-07-28T03:57:46;16.99;72.47
79489;SHT31;68949;53.176;18.088;2023-07-28T04:00:13;16.99;72.50
79489;SHT31;68949;53.176;18.088;2023-07-28T04:02:40;16.99;72.60
79489;SHT31;68949;53.176;18.088;2023-07-28T04:05:07;16.99;72.74
79489;SHT31;68949;53.176;18.088;2023-07-28T04:07:34;17.00;72.75
79489;SHT31;68949;53.176;18.088;2023-07-28T04:10:00;17.01;72.85
79489;SHT31;68949;53.176;18.088;2023-07-28T04:12:27;17.02;72.91
79489;SHT31;68949;53.176;18.088;2023-07-28T04:14:56;17.02;72.98
79489;SHT31;68949;53.176;18.088;2023-07-28T04:17:22;17.01;73.11
79489;SHT31;68949;53.176;18.088;2023-07-28T04:19:49;17.02;73.14
79489;SHT31;68949;53.176;18.088;2023-07-28T04:22:16;17.03;73.27
79489;SHT31;68949;53.176;18.088;2023-07-28T04:24:48;17.06;73.47
79489;SHT31;68949;53.176;18.088;2023-07-28T04:27:15;17.06;73.69
79489;SHT31;68949;53.176;18.088;2023-07-28T04:29:42;17.07;73.85
79489;SHT31;68949;53.176;18.088;2023-07-28T04:32:10;17.07;73.89
79489;SHT31;68949;53.176;18.088;2023-07-28T04:34:37;17.07;73.93
79489;SHT31;68949;53.176;18.088;2023-07-28T04:37:12;17.08;74.09
79489;SHT31;68949;53.176;18.088;2023-07-28T04:39:59;17.10;74.14
79489;SHT31;68949;53.176;18.088;2023-07-28T04:42:29;17.13;74.10
79489;SHT31;68949;53.176;18.088;2023-07-28T04:44:56;17.16;74.19
79489;SHT31;68949;53.176;18.088;2023-07-28T04:47:23;17.15;74.28
79489;SHT31;68949;53.176;18.088;2023-07-28T04:49:49;17.12;74.40
79489;SHT31;68949;53.176;18.088;2023-07-28T04:52:36;17.10;74.64
79489;SHT31;68949;53.176;18.088;2023-07-28T04:55:21;17.08;74.70
79489;SHT31;68949;53.176;18.088;2023-07-28T04:57:49;17.08;74.70
79489;SHT31;68949;53.176;18.088;2023-07-28T05:00:16;17.10;74.88
79489;SHT31;68949;53.176;18.088;2023-07-28T05:02:43;17.12;74.97
79489;SHT31;68949;53.176;18.088;2023-07-28T05:05:09;17.13;74.92
79489;SHT31;68949;53.176;18.088;2023-07-28T05:07:36;17.12;75.00
79489;SHT31;68949;53.176;18.088;2023-07-28T05:10:04;17.14;75.16
79489;SHT31;68949;53.176;18.088;2023-07-28T05:12:31;17.12;75.19
79489;SHT31;68949;53.176;18.088;2023-07-28T05:14:58;17.15;75.27
79489;SHT31;68949;53.176;18.088;2023-07-28T05:17:25;17.16;75.22
79489;SHT31;68949;53.176;18.088;2023-07-28T05:20:10;17.13;75.54
79489;SHT31;68949;53.176;18.088;2023-07-28T05:22:47;17.13;75.64
79489;SHT31;68949;53.176;18.088;2023-07-28T05:25:14;17.14;75.71
79489;SHT31;68949;53.176;18.088;2023-07-28T05:27:42;17.16;75.81
79489;SHT31;68949;53.176;18.088;2023-07-28T05:30:09;17.18;75.86
79489;SHT31;68949;53.176;18.088;2023-07-28T05:32:36;17.20;75.81
79489;SHT31;68949;53.176;18.088;2023-07-28T05:35:25;17.20;75.87
79489;SHT31;68949;53.176;18.088;2023-07-28T05:37:51;17.16;75.99
79489;SHT31;68949;53.176;18.088;2023-07-28T05:40:19;17.10;76.18
79489;SHT31;68949;53.176;18.088;2023-07-28T05:42:45;17.07;76.34
79489;SHT31;68949;53.176;18.088;2023-07-28T05:45:12;17.05;76.48
79489;SHT31;68949;53.176;18.088;2023-07-28T05:47:39;17.07;76.58
79489;SHT31;68949;53.176;18.088;2023-07-28T05:50:06;17.07;76.77
79489;SHT31;68949;53.176;18.088;2023-07-28T05:52:33;17.07;76.92
79489;SHT31;68949;53.176;18.088;2023-07-28T05:55:00;17.08;76.99
79489;SHT31;68949;53.176;18.088;2023-07-28T05:57:27;17.07;77.17
79489;SHT31;68949;53.176;18.088;2023-07-28T05:59:53;17.08;77.29
79489;SHT31;68949;53.176;18.088;2023-07-28T06:02:20;17.07;77.34
79489;SHT31;68949;53.176;18.088;2023-07-28T06:04:53;17.06;77.43
79489;SHT31;68949;53.176;18.088;2023-07-28T06:07:20;17.00;77.66
79489;SHT31;68949;53.176;18.088;2023-07-28T06:09:47;16.97;77.74
79489;SHT31;68949;53.176;18.088;2023-07-28T06:12:14;16.96;78.04
79489;SHT31;68949;53.176;18.088;2023-07-28T06:14:42;16.93;78.16
79489;SHT31;68949;53.176;18.088;2023-07-28T06:17:10;16.89;78.39
79489;SHT31;68949;53.176;18.088;2023-07-28T06:19:37;16.82;78.62
79489;SHT31;68949;53.176;18.088;2023-07-28T06:22:04;16.81;78.79
79489;SHT31;68949;53.176;18.088;2023-07-28T06:24:33;16.84;78.81
79489;SHT31;68949;53.176;18.088;2023-07-28T06:27:01;16.87;78.85
79489;SHT31;68949;53.176;18.088;2023-07-28T06:29:33;16.93;78.81
79489;SHT31;68949;53.176;18.088;2023-07-28T06:32:00;16.96;78.72
79489;SHT31;68949;53.176;18.088;2023-07-28T06:34:27;16.98;78.80
79489;SHT31;68949;53.176;18.088;2023-07-28T06:36:54;16.97;78.91
79489;SHT31;68949;53.176;18.088;2023-07-28T06:39:21;16.94;79.04
79489;SHT31;68949;53.176;18.088;2023-07-28T06:41:48;16.91;79.25
79489;SHT31;68949;53.176;18.088;2023-07-28T06:44:15;16.88;79.38
79489;SHT31;68949;53.176;18.088;2023-07-28T06:46:42;16.88;79.45
79489;SHT31;68949;53.176;18.088;2023-07-28T06:49:09;16.84;79.54
79489;SHT31;68949;53.176;18.088;2023-07-28T06:51:36;16.85;79.64
79489;SHT31;68949;53.176;18.088;2023-07-28T06:54:03;16.84;79.73
79489;SHT31;68949;53.176;18.088;2023-07-28T06:56:30;16.85;79.72
79489;SHT31;68949;53.176;18.088;2023-07-28T06:58:56;16.82;79.91
79489;SHT31;68949;53.176;18.088;2023-07-28T07:01:23;16.82;79.98
79489;SHT31;68949;53.176;18.088;2023-07-28T07:03:50;16.84;80.10
79489;SHT31;68949;53.176;18.088;2023-07-28T07:06:16;16.89;80.22
79489;SHT31;68949;53.176;18.088;2023-07-28T07:08:43;16.93;80.21
79489;SHT31;68949;53.176;18.088;2023-07-28T07:11:10;16.99;80.09
79489;SHT31;68949;53.176;18.088;2023-07-28T07:13:37;17.07;80.20
79489;SHT31;68949;53.176;18.088;2023-07-28T07:16:04;17.14;80.33
79489;SHT31;68949;53.176;18.088;2023-07-28T07:18:32;17.20;80.32
79489;SHT31;68949;53.176;18.088;2023-07-28T07:21:02;17.27;80.20
79489;SHT31;68949;53.176;18.088;2023-07-28T07:23:30;17.30;80.28
79489;SHT31;68949;53.176;18.088;2023-07-28T07:25:57;17.29;80.28
79489;SHT31;68949;53.176;18.088;2023-07-28T07:28:23;17.27;80.31
79489;SHT31;68949;53.176;18.088;2023-07-28T07:30:50;17.27;80.25
79489;SHT31;68949;53.176;18.088;2023-07-28T07:33:17;17.28;80.36
79489;SHT31;68949;53.176;18.088;2023-07-28T07:35:43;17.28;80.48
79489;SHT31;68949;53.176;18.088;2023-07-28T07:38:10;17.25;80.49
79489;SHT31;68949;53.176;18.088;2023-07-28T07:40:37;17.27;80.63
79489;SHT31;68949;53.176;18.088;2023-07-28T07:43:04;17.33;80.49
79489;SHT31;68949;53.176;18.088;2023-07-28T07:45:32;17.35;80.53
79489;SHT31;68949;53.176;18.088;2023-07-28T07:47:59;17.32;80.66
79489;SHT31;68949;53.176;18.088;2023-07-28T07:50:25;17.31;80.66
79489;SHT31;68949;53.176;18.088;2023-07-28T07:52:52;17.31;80.75
79489;SHT31;68949;53.176;18.088;2023-07-28T07:55:19;17.36;80.62
79489;SHT31;68949;53.176;18.088;2023-07-28T07:57:46;17.39;80.63
79489;SHT31;68949;53.176;18.088;2023-07-28T08:00:13;17.42;80.59
79489;SHT31;68949;53.176;18.088;2023-07-28T08:02:40;17.42;80.71
79489;SHT31;68949;53.176;18.088;2023-07-28T08:05:06;17.40;80.79
79489;SHT31;68949;53.176;18.088;2023-07-28T08:07:34;17.44;80.86
79489;SHT31;68949;53.176;18.088;2023-07-28T08:10:00;17.48;80.84
79489;SHT31;68949;53.176;18.088;2023-07-28T08:12:27;17.49;80.85
79489;SHT31;68949;53.176;18.088;2023-07-28T08:14:54;17.50;80.88
79489;SHT31;68949;53.176;18.088;2023-07-28T08:17:21;17.50;81.00
79489;SHT31;68949;53.176;18.088;2023-07-28T08:19:48;17.48;81.06
79489;SHT31;68949;53.176;18.088;2023-07-28T08:22:14;17.36;81.13
79489;SHT31;68949;53.176;18.088;2023-07-28T08:24:41;17.18;81.58
79489;SHT31;68949;53.176;18.088;2023-07-28T08:27:07;17.09;81.82
79489;SHT31;68949;53.176;18.088;2023-07-28T08:29:34;17.13;81.87
79489;SHT31;68949;53.176;18.088;2023-07-28T08:32:02;17.11;81.86
79489;SHT31;68949;53.176;18.088;2023-07-28T08:34:28;17.15;81.83
79489;SHT31;68949;53.176;18.088;2023-07-28T08:36:55;17.26;81.58
79489;SHT31;68949;53.176;18.088;2023-07-28T08:39:22;17.35;81.48
79489;SHT31;68949;53.176;18.088;2023-07-28T08:41:57;17.49;81.40
79489;SHT31;68949;53.176;18.088;2023-07-28T08:44:31;17.63;81.52
79489;SHT31;68949;53.176;18.088;2023-07-28T08:47:01;17.70;81.58
79489;SHT31;68949;53.176;18.088;2023-07-28T08:49:31;17.76;81.65
79489;SHT31;68949;53.176;18.088;2023-07-28T08:52:03;17.82;81.52
79489;SHT31;68949;53.176;18.088;2023-07-28T08:54:31;17.84;81.38
79489;SHT31;68949;53.176;18.088;2023-07-28T08:56:58;17.89;81.42
79489;SHT31;68949;53.176;18.088;2023-07-28T08:59:25;18.01;81.42
79489;SHT31;68949;53.176;18.088;2023-07-28T09:01:55;18.16;81.23
79489;SHT31;68949;53.176;18.088;2023-07-28T09:04:27;18.28;81.34
79489;SHT31;68949;53.176;18.088;2023-07-28T09:06:54;18.41;81.32
79489;SHT31;68949;53.176;18.088;2023-07-28T09:09:21;18.56;80.98
79489;SHT31;68949;53.176;18.088;2023-07-28T09:11:50;18.68;81.10
79489;SHT31;68949;53.176;18.088;2023-07-28T09:14:20;18.80;80.94
79489;SHT31;68949;53.176;18.088;2023-07-28T09:16:50;18.96;80.58
79489;SHT31;68949;53.176;18.088;2023-07-28T09:19:16;19.08;80.42
79489;SHT31;68949;53.176;18.088;2023-07-28T09:21:44;19.24;80.50
79489;SHT31;68949;53.176;18.088;2023-07-28T09:24:13;19.40;80.38
79489;SHT31;68949;53.176;18.088;2023-07-28T09:26:43;19.53;80.03
79489;SHT31;68949;53.176;18.088;2023-07-28T09:29:13;19.64;80.37
79489;SHT31;68949;53.176;18.088;2023-07-28T09:31:44;19.70;79.89
79489;SHT31;68949;53.176;18.088;2023-07-28T09:34:13;19.73;79.74
79489;SHT31;68949;53.176;18.088;2023-07-28T09:36:50;19.81;79.79
79489;SHT31;68949;53.176;18.088;2023-07-28T09:39:23;19.88;79.68
79489;SHT31;68949;53.176;18.088;2023-07-28T09:41:52;19.91;79.77
79489;SHT31;68949;53.176;18.088;2023-07-28T09:44:19;19.92;79.60
79489;SHT31;68949;53.176;18.088;2023-07-28T09:46:50;19.87;79.54
79489;SHT31;68949;53.176;18.088;2023-07-28T09:52:05;19.76;79.45
79489;SHT31;68949;53.176;18.088;2023-07-28T09:54:39;19.74;79.59
79489;SHT31;68949;53.176;18.088;2023-07-28T09:57:11;19.74;79.51
79489;SHT31;68949;53.176;18.088;2023-07-28T09:59:42;19.73;79.36
79489;SHT31;68949;53.176;18.088;2023-07-28T10:02:14;19.79;79.34
79489;SHT31;68949;53.176;18.088;2023-07-28T10:04:42;19.88;79.51
79489;SHT31;68949;53.176;18.088;2023-07-28T10:07:09;20.04;79.33
79489;SHT31;68949;53.176;18.088;2023-07-28T10:09:40;20.21;79.21
79489;SHT31;68949;53.176;18.088;2023-07-28T10:12:17;20.36;78.93
79489;SHT31;68949;53.176;18.088;2023-07-28T10:15:01;20.51;78.58
79489;SHT31;68949;53.176;18.088;2023-07-28T10:17:35;20.71;78.33
79489;SHT31;68949;53.176;18.088;2023-07-28T10:20:06;20.93;78.06
79489;SHT31;68949;53.176;18.088;2023-07-28T10:23:01;21.23;77.18
79489;SHT31;68949;53.176;18.088;2023-07-28T10:25:55;21.41;77.08
79489;SHT31;68949;53.176;18.088;2023-07-28T10:31:02;21.48;76.37
79489;SHT31;68949;53.176;18.088;2023-07-28T10:33:40;21.43;76.36
79489;SHT31;68949;53.176;18.088;2023-07-28T10:36:15;21.43;76.51
79489;SHT31;68949;53.176;18.088;2023-07-28T10:41:31;21.62;76.68
79489;SHT31;68949;53.176;18.088;2023-07-28T10:44:01;21.67;76.18
79489;SHT31;68949;53.176;18.088;2023-07-28T10:46:28;21.66;76.05
79489;SHT31;68949;53.176;18.088;2023-07-28T10:48:56;21.59;76.16
79489;SHT31;68949;53.176;18.088;2023-07-28T10:51:32;21.49;76.30
79489;SHT31;68949;53.176;18.088;2023-07-28T10:53:59;21.43;76.43
79489;SHT31;68949;53.176;18.088;2023-07-28T10:56:29;21.49;77.11
79489;SHT31;68949;53.176;18.088;2023-07-28T10:58:56;21.50;77.01
79489;SHT31;68949;53.176;18.088;2023-07-28T11:01:34;21.49;77.71
79489;SHT31;68949;53.176;18.088;2023-07-28T11:04:19;21.49;77.73
79489;SHT31;68949;53.176;18.088;2023-07-28T11:06:47;21.60;77.67
79489;SHT31;68949;53.176;18.088;2023-07-28T11:09:18;21.73;77.18
79489;SHT31;68949;53.176;18.088;2023-07-28T11:11:48;21.86;76.76
79489;SHT31;68949;53.176;18.088;2023-07-28T11:14:17;21.97;76.63
79489;SHT31;68949;53.176;18.088;2023-07-28T11:16:44;22.27;77.12
79489;SHT31;68949;53.176;18.088;2023-07-28T11:19:13;22.53;75.58
79489;SHT31;68949;53.176;18.088;2023-07-28T11:21:40;22.56;75.46
79489;SHT31;68949;53.176;18.088;2023-07-28T11:24:09;22.58;75.86
79489;SHT31;68949;53.176;18.088;2023-07-28T11:26:37;22.61;75.77
79489;SHT31;68949;53.176;18.088;2023-07-28T11:29:05;22.64;75.08
79489;SHT31;68949;53.176;18.088;2023-07-28T11:31:33;22.65;75.04
79489;SHT31;68949;53.176;18.088;2023-07-28T11:34:00;22.56;74.86
79489;SHT31;68949;53.176;18.088;2023-07-28T11:36:28;22.58;75.13
79489;SHT31;68949;53.176;18.088;2023-07-28T11:38:57;22.78;74.42
79489;SHT31;68949;53.176;18.088;2023-07-28T11:41:26;22.69;73.40
79489;SHT31;68949;53.176;18.088;2023-07-28T11:43:54;22.55;74.02
79489;SHT31;68949;53.176;18.088;2023-07-28T11:46:37;22.56;73.78
79489;SHT31;68949;53.176;18.088;2023-07-28T11:49:17;22.34;73.74
79489;SHT31;68949;53.176;18.088;2023-07-28T11:51:53;22.10;73.66
79489;SHT31;68949;53.176;18.088;2023-07-28T11:54:21;21.91;74.18
79489;SHT31;68949;53.176;18.088;2023-07-28T11:56:54;21.85;74.17
79489;SHT31;68949;53.176;18.088;2023-07-28T11:59:23;21.90;74.33
79489;SHT31;68949;53.176;18.088;2023-07-28T12:01:51;22.04;74.43
79489;SHT31;68949;53.176;18.088;2023-07-28T12:04:23;22.16;73.96
79489;SHT31;68949;53.176;18.088;2023-07-28T12:07:00;22.22;73.75
79489;SHT31;68949;53.176;18.088;2023-07-28T12:12:21;22.11;74.02
79489;SHT31;68949;53.176;18.088;2023-07-28T12:14:50;21.95;73.98
79489;SHT31;68949;53.176;18.088;2023-07-28T12:17:20;21.79;74.18
79489;SHT31;68949;53.176;18.088;2023-07-28T12:22:48;21.43;74.58
79489;SHT31;68949;53.176;18.088;2023-07-28T12:25:14;21.40;74.84
79489;SHT31;68949;53.176;18.088;2023-07-28T12:27:41;21.44;74.88
79489;SHT31;68949;53.176;18.088;2023-07-28T12:30:08;21.51;74.93
79489;SHT31;68949;53.176;18.088;2023-07-28T12:32:36;21.58;74.25
79489;SHT31;68949;53.176;18.088;2023-07-28T12:35:02;21.89;74.38
79489;SHT31;68949;53.176;18.088;2023-07-28T12:37:30;22.22;73.33
79489;SHT31;68949;53.176;18.088;2023-07-28T12:39:57;22.40;72.43
79489;SHT31;68949;53.176;18.088;2023-07-28T12:42:26;22.62;72.03
79489;SHT31;68949;53.176;18.088;2023-07-28T12:44:53;22.87;71.57
79489;SHT31;68949;53.176;18.088;2023-07-28T12:47:20;23.04;70.62
79489;SHT31;68949;53.176;18.088;2023-07-28T12:49:47;22.90;69.69
79489;SHT31;68949;53.176;18.088;2023-07-28T12:52:13;22.81;68.95
79489;SHT31;68949;53.176;18.088;2023-07-28T12:54:41;22.82;69.94
79489;SHT31;68949;53.176;18.088;2023-07-28T12:57:09;22.82;69.77
79489;SHT31;68949;53.176;18.088;2023-07-28T12:59:38;23.02;69.57
79489;SHT31;68949;53.176;18.088;2023-07-28T13:02:05;23.25;67.83
79489;SHT31;68949;53.176;18.088;2023-07-28T13:04:32;23.47;68.17
79489;SHT31;68949;53.176;18.088;2023-07-28T13:07:02;23.65;67.48
79489;SHT31;68949;53.176;18.088;2023-07-28T13:09:29;23.89;66.18
79489;SHT31;68949;53.176;18.088;2023-07-28T13:11:56;24.06;64.71
79489;SHT31;68949;53.176;18.088;2023-07-28T13:14:22;24.01;63.76
79489;SHT31;68949;53.176;18.088;2023-07-28T13:16:49;24.01;65.10
79489;SHT31;68949;53.176;18.088;2023-07-28T13:19:16;23.97;63.71
79489;SHT31;68949;53.176;18.088;2023-07-28T13:21:42;23.74;63.41
79489;SHT31;68949;53.176;18.088;2023-07-28T13:24:09;23.60;64.09
79489;SHT31;68949;53.176;18.088;2023-07-28T13:26:36;23.49;64.58
79489;SHT31;68949;53.176;18.088;2023-07-28T13:29:02;23.57;64.75
79489;SHT31;68949;53.176;18.088;2023-07-28T13:31:34;23.81;64.93
79489;SHT31;68949;53.176;18.088;2023-07-28T13:34:00;24.00;64.48
79489;SHT31;68949;53.176;18.088;2023-07-28T13:36:27;24.05;63.46
79489;SHT31;68949;53.176;18.088;2023-07-28T13:38:53;23.77;63.01
79489;SHT31;68949;53.176;18.088;2023-07-28T13:41:20;23.54;63.43
79489;SHT31;68949;53.176;18.088;2023-07-28T13:43:47;23.42;63.19
79489;SHT31;68949;53.176;18.088;2023-07-28T13:46:13;23.19;63.10
79489;SHT31;68949;53.176;18.088;2023-07-28T13:48:40;22.85;64.50
79489;SHT31;68949;53.176;18.088;2023-07-28T13:51:07;22.49;66.37
79489;SHT31;68949;53.176;18.088;2023-07-28T13:53:33;22.28;67.08
79489;SHT31;68949;53.176;18.088;2023-07-28T13:56:00;22.31;67.21
79489;SHT31;68949;53.176;18.088;2023-07-28T13:58:27;22.46;67.17
79489;SHT31;68949;53.176;18.088;2023-07-28T14:00:54;22.68;66.05
79489;SHT31;68949;53.176;18.088;2023-07-28T14:03:21;22.60;64.99
79489;SHT31;68949;53.176;18.088;2023-07-28T14:05:48;22.55;65.18
79489;SHT31;68949;53.176;18.088;2023-07-28T14:08:15;22.69;65.29
79489;SHT31;68949;53.176;18.088;2023-07-28T14:10:45;22.76;64.37
79489;SHT31;68949;53.176;18.088;2023-07-28T14:13:13;22.82;64.32
79489;SHT31;68949;53.176;18.088;2023-07-28T14:15:40;22.94;63.63
79489;SHT31;68949;53.176;18.088;2023-07-28T14:18:07;22.84;63.76
79489;SHT31;68949;53.176;18.088;2023-07-28T14:20:43;22.89;64.39
79489;SHT31;68949;53.176;18.088;2023-07-28T14:23:22;22.86;63.53
79489;SHT31;68949;53.176;18.088;2023-07-28T14:25:52;22.70;63.67
79489;SHT31;68949;53.176;18.088;2023-07-28T14:28:21;22.50;63.97
79489;SHT31;68949;53.176;18.088;2023-07-28T14:31:02;22.27;64.13
79489;SHT31;68949;53.176;18.088;2023-07-28T14:33:30;22.33;64.33
79489;SHT31;68949;53.176;18.088;2023-07-28T14:35:57;22.51;64.25
79489;SHT31;68949;53.176;18.088;2023-07-28T14:38:24;22.53;63.92
79489;SHT31;68949;53.176;18.088;2023-07-28T14:40:51;22.59;63.53
79489;SHT31;68949;53.176;18.088;2023-07-28T14:43:18;22.53;64.02
79489;SHT31;68949;53.176;18.088;2023-07-28T14:45:46;22.50;64.11
79489;SHT31;68949;53.176;18.088;2023-07-28T14:48:17;22.67;63.51
79489;SHT31;68949;53.176;18.088;2023-07-28T14:50:47;22.81;63.29
79489;SHT31;68949;53.176;18.088;2023-07-28T14:53:27;22.90;62.61
79489;SHT31;68949;53.176;18.088;2023-07-28T14:56:04;22.93;62.70
79489;SHT31;68949;53.176;18.088;2023-07-28T14:58:32;22.78;62.81
79489;SHT31;68949;53.176;18.088;2023-07-28T15:00:59;22.55;62.74
79489;SHT31;68949;53.176;18.088;2023-07-28T15:03:27;22.56;62.93
79489;SHT31;68949;53.176;18.088;2023-07-28T15:05:56;22.76;62.86
79489;SHT31;68949;53.176;18.088;2023-07-28T15:08:24;23.03;62.77
79489;SHT31;68949;53.176;18.088;2023-07-28T15:10:51;23.20;62.26
79489;SHT31;68949;53.176;18.088;2023-07-28T15:13:18;23.14;60.97
79489;SHT31;68949;53.176;18.088;2023-07-28T15:15:46;23.03;60.33
79489;SHT31;68949;53.176;18.088;2023-07-28T15:18:14;23.06;61.06
79489;SHT31;68949;53.176;18.088;2023-07-28T15:20:41;23.20;60.41
79489;SHT31;68949;53.176;18.088;2023-07-28T15:23:09;23.28;59.80
79489;SHT31;68949;53.176;18.088;2023-07-28T15:25:36;23.22;59.44
79489;SHT31;68949;53.176;18.088;2023-07-28T15:28:09;22.85;59.81
79489;SHT31;68949;53.176;18.088;2023-07-28T15:30:39;22.60;59.96
79489;SHT31;68949;53.176;18.088;2023-07-28T15:33:05;22.53;60.21
79489;SHT31;68949;53.176;18.088;2023-07-28T15:35:32;22.47;60.44
79489;SHT31;68949;53.176;18.088;2023-07-28T15:38:00;22.38;60.57
79489;SHT31;68949;53.176;18.088;2023-07-28T15:40:27;22.38;60.20
79489;SHT31;68949;53.176;18.088;2023-07-28T15:42:54;22.41;60.14